sensor_id;sensor_type;location;lat;lon;timestamp;temperature;humidity
12911;DHT22;6523;49.758;6.120;2023-04-24T00:00:54;9.00;99.90
12911;DHT22;6523;49.758;6.120;2023-04-24T00:03:24;9.00;99.90
12911;DHT22;6523;49.758;6.120;2023-04-24T00:05:50;9.00;99.90
12911;DHT22;6523;49.758;6.120;2023-04-24T00:08:16;9.00;99.90
12911;DHT22;6523;49.758;6.120;2023-04-24T00:10:42;9.00;99.90
12911;DHT22;6523;49.758;6.120;2023-04-24T00:13:08;9.00;99.90
12911;DHT22;6523;49.758;6.120;2023-04-24T00:15:33;9.00;99.90
12911;DHT22;6523;49.758;6.120;2023-04-24T00:17:59;9.00;99.90
12911;DHT22;6523;49.758;6.120;2023-04-24T00:20:26;9.00;99.90
12911;DHT22;6523;49.758;6.120;2023-04-24T00:22:53;9.00;99.90
12911;DHT22;6523;49.758;6.120;2023-04-24T00:25:19;9.00;99.90
12911;DHT22;6523;49.758;6.120;2023-04-24T00:27:44;9.00;99.90
12911;DHT22;6523;49.758;6.120;2023-04-24T00:30:10;9.00;99.90
12911;DHT22;6523;49.758;6.120;2023-04-24T00:32:36;9.00;99.90
12911;DHT22;6523;49.758;6.120;2023-04-24T00:35:01;9.00;99.90
12911;DHT22;6523;49.758;6.120;2023-04-24T00:37:27;8.90;99.90
12911;DHT22;6523;49.758;6.120;2023-04-24T00:39:52;8.90;99.90
12911;DHT22;6523;49.758;6.120;2023-04-24T00:42:18;8.80;99.90
12911;DHT22;6523;49.758;6.120;2023-04-24T00:44:43;8.90;99.90
12911;DHT22;6523;49.758;6.120;2023-04-24T00:47:10;8.90;99.90
12911;DHT22;6523;49.758;6.120;2023-04-24T00:49:36;8.80;99.90
12911;DHT22;6523;49.758;6.120;2023-04-24T00:52:02;8.80;99.90
12911;DHT22;6523;49.758;6.120;2023-04-24T00:54:27;8.80;99.90
12911;DHT22;6523;49.758;6.120;2023-04-24T00:56:53;8.70;99.90
12911;DHT22;6523;49.758;6.120;2023-04-24T00:59:18;8.70;99.90
12911;DHT22;6523;49.758;6.120;2023-04-24T01:01:45;8.60;99.90
12911;DHT22;6523;49.758;6.120;2023-04-24T01:04:11;8.50;99.90
12911;DHT22;6523;49.758;6.120;2023-04-24T01:06:40;8.40;99.90
12911;DHT22;6523;49.758;6.120;2023-04-24T01:09:09;8.30;99.90
12911;DHT22;6523;49.758;6.120;2023-04-24T01:11:36;8.20;99.90
12911;DHT22;6523;49.758;6.120;2023-04-24T01:14:02;8.20;99.90
12911;DHT22;6523;49.758;6.120;2023-04-24T01:16:28;8.10;99.90
12911;DHT22;6523;49.758;6.120;2023-04-24T01:18:53;8.10;99.90
12911;DHT22;6523;49.758;6.120;2023-04-24T01:21:20;8.10;99.90
12911;DHT22;6523;49.758;6.120;2023-04-24T01:23:46;7.90;99.90
12911;DHT22;6523;49.758;6.120;2023-04-24T01:26:16;7.80;99.90
12911;DHT22;6523;49.758;6.120;2023-04-24T01:28:42;8.00;99.90
12911;DHT22;6523;49.758;6.120;2023-04-24T01:31:08;8.00;99.90
12911;DHT22;6523;49.758;6.120;2023-04-24T01:33:34;7.90;99.90
12911;DHT22;6523;49.758;6.120;2023-04-24T01:35:59;7.70;99.90
12911;DHT22;6523;49.758;6.120;2023-04-24T01:38:25;7.70;99.90
12911;DHT22;6523;49.758;6.120;2023-04-24T01:40:51;7.70;99.90
12911;DHT22;6523;49.758;6.120;2023-04-24T01:43:17;7.70;99.90
12911;DHT22;6523;49.758;6.120;2023-04-24T01:45:43;7.70;99.90
12911;DHT22;6523;49.758;6.120;2023-04-24T01:48:08;7.60;99.90
12911;DHT22;6523;49.758;6.120;2023-04-24T01:50:34;7.50;99.90
12911;DHT22;6523;49.758;6.120;2023-04-24T01:53:00;7.50;99.90
12911;DHT22;6523;49.758;6.120;2023-04-24T01:55:26;7.50;99.90
12911;DHT22;6523;49.758;6.120;2023-04-24T01:57:52;7.30;99.90
12911;DHT22;6523;49.758;6.120;2023-04-24T02:00:20;7.20;99.90
12911;DHT22;6523;49.758;6.120;2023-04-24T02:02:46;7.30;99.90
12911;DHT22;6523;49.758;6.120;2023-04-24T02:05:11;7.30;99.90
12911;DHT22;6523;49.758;6.120;2023-04-24T02:07:37;7.30;99.90
12911;DHT22;6523;49.758;6.120;2023-04-24T02:10:03;7.20;99.90
12911;DHT22;6523;49.758;6.120;2023-04-24T02:12:29;7.10;99.90
12911;DHT22;6523;49.758;6.120;2023-04-24T02:14:55;7.10;99.90
12911;DHT22;6523;49.758;6.120;2023-04-24T02:17:20;7.00;99.90
12911;DHT22;6523;49.758;6.120;2023-04-24T02:19:46;7.00;99.90
12911;DHT22;6523;49.758;6.120;2023-04-24T02:22:12;7.10;99.90
12911;DHT22;6523;49.758;6.120;2023-04-24T02:24:38;7.10;99.90
12911;DHT22;6523;49.758;6.120;2023-04-24T02:27:04;7.00;99.90
12911;DHT22;6523;49.758;6.120;2023-04-24T02:29:30;7.00;99.90
12911;DHT22;6523;49.758;6.120;2023-04-24T02:31:55;6.90;99.90
12911;DHT22;6523;49.758;6.120;2023-04-24T02:34:21;6.90;99.90
12911;DHT22;6523;49.758;6.120;2023-04-24T02:36:46;6.90;99.90
12911;DHT22;6523;49.758;6.120;2023-04-24T02:39:12;7.00;99.90
12911;DHT22;6523;49.758;6.120;2023-04-24T02:41:38;7.10;99.90
12911;DHT22;6523;49.758;6.120;2023-04-24T02:44:04;7.10;99.90
12911;DHT22;6523;49.758;6.120;2023-04-24T02:46:29;7.10;99.90
12911;DHT22;6523;49.758;6.120;2023-04-24T02:48:55;7.10;99.90
12911;DHT22;6523;49.758;6.120;2023-04-24T02:51:21;7.00;99.90
12911;DHT22;6523;49.758;6.120;2023-04-24T02:53:46;7.10;99.90
12911;DHT22;6523;49.758;6.120;2023-04-24T02:56:12;7.10;99.90
12911;DHT22;6523;49.758;6.120;2023-04-24T02:58:38;7.10;99.90
12911;DHT22;6523;49.758;6.120;2023-04-24T03:01:04;7.10;99.90
12911;DHT22;6523;49.758;6.120;2023-04-24T03:03:30;7.20;99.90
12911;DHT22;6523;49.758;6.120;2023-04-24T03:05:55;7.20;99.90
12911;DHT22;6523;49.758;6.120;2023-04-24T03:08:22;7.20;99.90
12911;DHT22;6523;49.758;6.120;2023-04-24T03:10:48;7.20;99.90
12911;DHT22;6523;49.758;6.120;2023-04-24T03:13:13;7.20;99.90
12911;DHT22;6523;49.758;6.120;2023-04-24T03:15:39;7.20;99.90
12911;DHT22;6523;49.758;6.120;2023-04-24T03:18:04;7.30;99.90
12911;DHT22;6523;49.758;6.120;2023-04-24T03:20:30;7.30;99.90
12911;DHT22;6523;49.758;6.120;2023-04-24T03:22:55;7.30;99.90
12911;DHT22;6523;49.758;6.120;2023-04-24T03:25:22;7.30;99.90
12911;DHT22;6523;49.758;6.120;2023-04-24T03:27:47;7.40;99.90
12911;DHT22;6523;49.758;6.120;2023-04-24T03:30:13;7.40;99.90
12911;DHT22;6523;49.758;6.120;2023-04-24T03:32:39;7.40;99.90
12911;DHT22;6523;49.758;6.120;2023-04-24T03:35:06;7.40;99.90
12911;DHT22;6523;49.758;6.120;2023-04-24T03:37:32;7.40;99.90
12911;DHT22;6523;49.758;6.120;2023-04-24T03:39:58;7.40;99.90
12911;DHT22;6523;49.758;6.120;2023-04-24T03:42:23;7.40;99.90
12911;DHT22;6523;49.758;6.120;2023-04-24T03:44:49;7.40;99.90
12911;DHT22;6523;49.758;6.120;2023-04-24T03:47:15;7.40;99.90
12911;DHT22;6523;49.758;6.120;2023-04-24T03:49:40;7.40;99.90
12911;DHT22;6523;49.758;6.120;2023-04-24T03:52:06;7.40;99.90
12911;DHT22;6523;49.758;6.120;2023-04-24T03:54:31;7.40;99.90
12911;DHT22;6523;49.758;6.120;2023-04-24T03:56:57;7.30;99.90
12911;DHT22;6523;49.758;6.120;2023-04-24T03:59:22;7.30;99.90
12911;DHT22;6523;49.758;6.120;2023-04-24T04:01:48;7.20;99.90
12911;DHT22;6523;49.758;6.120;2023-04-24T04:04:13;7.20;99.90
12911;DHT22;6523;49.758;6.120;2023-04-24T04:06:39;7.10;99.90
12911;DHT22;6523;49.758;6.120;2023-04-24T04:09:05;7.20;99.90
12911;DHT22;6523;49.758;6.120;2023-04-24T04:11:31;7.10;99.90
12911;DHT22;6523;49.758;6.120;2023-04-24T04:13:56;7.10;99.90
12911;DHT22;6523;49.758;6.120;2023-04-24T04:16:22;7.20;99.90
12911;DHT22;6523;49.758;6.120;2023-04-24T04:18:48;7.10;99.90
12911;DHT22;6523;49.758;6.120;2023-04-24T04:21:14;7.10;99.90
12911;DHT22;6523;49.758;6.120;2023-04-24T04:23:39;7.10;99.90
12911;DHT22;6523;49.758;6.120;2023-04-24T04:26:05;7.20;99.90
12911;DHT22;6523;49.758;6.120;2023-04-24T04:28:31;7.10;99.90
12911;DHT22;6523;49.758;6.120;2023-04-24T04:30:57;7.00;99.90
12911;DHT22;6523;49.758;6.120;2023-04-24T04:33:24;7.10;99.90
12911;DHT22;6523;49.758;6.120;2023-04-24T04:35:50;7.10;99.90
12911;DHT22;6523;49.758;6.120;2023-04-24T04:38:18;7.10;99.90
12911;DHT22;6523;49.758;6.120;2023-04-24T04:40:44;7.20;99.90
12911;DHT22;6523;49.758;6.120;2023-04-24T04:43:09;7.20;99.90
12911;DHT22;6523;49.758;6.120;2023-04-24T04:45:39;7.20;99.90
12911;DHT22;6523;49.758;6.120;2023-04-24T04:48:05;7.20;99.90
12911;DHT22;6523;49.758;6.120;2023-04-24T04:50:33;7.20;99.90
12911;DHT22;6523;49.758;6.120;2023-04-24T04:52:58;7.20;99.90
12911;DHT22;6523;49.758;6.120;2023-04-24T04:55:24;7.20;99.90
12911;DHT22;6523;49.758;6.120;2023-04-24T04:57:50;7.20;99.90
12911;DHT22;6523;49.758;6.120;2023-04-24T05:00:16;7.30;99.90
12911;DHT22;6523;49.758;6.120;2023-04-24T05:02:42;7.20;99.90
12911;DHT22;6523;49.758;6.120;2023-04-24T05:05:07;7.20;99.90
12911;DHT22;6523;49.758;6.120;2023-04-24T05:07:34;7.20;99.90
12911;DHT22;6523;49.758;6.120;2023-04-24T05:09:59;7.20;99.90
12911;DHT22;6523;49.758;6.120;2023-04-24T05:12:25;7.20;99.90
12911;DHT22;6523;49.758;6.120;2023-04-24T05:14:51;7.20;99.90
12911;DHT22;6523;49.758;6.120;2023-04-24T05:17:16;7.20;99.90
12911;DHT22;6523;49.758;6.120;2023-04-24T05:19:42;7.10;99.90
12911;DHT22;6523;49.758;6.120;2023-04-24T05:22:08;7.10;99.90
12911;DHT22;6523;49.758;6.120;2023-04-24T05:24:35;7.10;99.90
12911;DHT22;6523;49.758;6.120;2023-04-24T05:27:01;7.20;99.90
12911;DHT22;6523;49.758;6.120;2023-04-24T05:29:27;7.20;99.90
12911;DHT22;6523;49.758;6.120;2023-04-24T05:31:53;7.10;99.90
12911;DHT22;6523;49.758;6.120;2023-04-24T05:34:18;7.10;99.90
12911;DHT22;6523;49.758;6.120;2023-04-24T05:36:44;7.20;99.90
12911;DHT22;6523;49.758;6.120;2023-04-24T05:39:10;7.20;99.90
12911;DHT22;6523;49.758;6.120;2023-04-24T05:41:35;7.20;99.90
12911;DHT22;6523;49.758;6.120;2023-04-24T05:44:01;7.20;99.90
12911;DHT22;6523;49.758;6.120;2023-04-24T05:46:26;7.20;99.90
12911;DHT22;6523;49.758;6.120;2023-04-24T05:48:52;7.20;99.90
12911;DHT22;6523;49.758;6.120;2023-04-24T05:51:17;7.20;99.90
12911;DHT22;6523;49.758;6.120;2023-04-24T05:53:43;7.20;99.90
12911;DHT22;6523;49.758;6.120;2023-04-24T05:56:08;7.20;99.90
12911;DHT22;6523;49.758;6.120;2023-04-24T05:58:34;7.20;99.90
12911;DHT22;6523;49.758;6.120;2023-04-24T06:01:00;7.20;99.90
12911;DHT22;6523;49.758;6.120;2023-04-24T06:03:27;7.20;99.90
12911;DHT22;6523;49.758;6.120;2023-04-24T06:05:53;7.30;99.90
12911;DHT22;6523;49.758;6.120;2023-04-24T06:08:18;7.30;99.90
12911;DHT22;6523;49.758;6.120;2023-04-24T06:10:44;7.40;99.90
12911;DHT22;6523;49.758;6.120;2023-04-24T06:13:10;7.50;99.90
12911;DHT22;6523;49.758;6.120;2023-04-24T06:15:36;7.50;99.90
12911;DHT22;6523;49.758;6.120;2023-04-24T06:18:02;7.50;99.90
12911;DHT22;6523;49.758;6.120;2023-04-24T06:20:28;7.50;99.90
12911;DHT22;6523;49.758;6.120;2023-04-24T06:22:53;7.50;99.90
12911;DHT22;6523;49.758;6.120;2023-04-24T06:25:19;7.50;99.90
12911;DHT22;6523;49.758;6.120;2023-04-24T06:27:45;7.50;99.90
12911;DHT22;6523;49.758;6.120;2023-04-24T06:30:11;7.50;99.90
12911;DHT22;6523;49.758;6.120;2023-04-24T06:32:36;7.50;99.90
12911;DHT22;6523;49.758;6.120;2023-04-24T06:35:02;7.50;99.90
12911;DHT22;6523;49.758;6.120;2023-04-24T06:37:27;7.50;99.90
12911;DHT22;6523;49.758;6.120;2023-04-24T06:39:53;7.50;99.90
12911;DHT22;6523;49.758;6.120;2023-04-24T06:42:19;7.40;99.90
12911;DHT22;6523;49.758;6.120;2023-04-24T06:44:47;7.40;99.90
12911;DHT22;6523;49.758;6.120;2023-04-24T06:47:12;7.40;99.90
12911;DHT22;6523;49.758;6.120;2023-04-24T06:49:41;7.40;99.90
12911;DHT22;6523;49.758;6.120;2023-04-24T06:52:07;7.40;99.90
12911;DHT22;6523;49.758;6.120;2023-04-24T06:54:33;7.40;99.90
12911;DHT22;6523;49.758;6.120;2023-04-24T06:56:59;7.50;99.90
12911;DHT22;6523;49.758;6.120;2023-04-24T06:59:26;7.40;99.90
12911;DHT22;6523;49.758;6.120;2023-04-24T07:01:52;7.40;99.90
12911;DHT22;6523;49.758;6.120;2023-04-24T07:04:18;7.50;99.90
12911;DHT22;6523;49.758;6.120;2023-04-24T07:06:45;7.50;99.90
12911;DHT22;6523;49.758;6.120;2023-04-24T07:09:11;7.50;99.90
12911;DHT22;6523;49.758;6.120;2023-04-24T07:11:37;7.40;99.90
12911;DHT22;6523;49.758;6.120;2023-04-24T07:14:04;7.40;99.90
12911;DHT22;6523;49.758;6.120;2023-04-24T07:16:30;7.40;99.90
12911;DHT22;6523;49.758;6.120;2023-04-24T07:18:55;7.40;99.90
12911;DHT22;6523;49.758;6.120;2023-04-24T07:21:21;7.40;99.90
12911;DHT22;6523;49.758;6.120;2023-04-24T07:23:46;7.40;99.90
12911;DHT22;6523;49.758;6.120;2023-04-24T07:26:12;7.40;99.90
12911;DHT22;6523;49.758;6.120;2023-04-24T07:28:39;7.50;99.90
12911;DHT22;6523;49.758;6.120;2023-04-24T07:31:05;7.50;99.90
12911;DHT22;6523;49.758;6.120;2023-04-24T07:33:31;7.50;99.90
12911;DHT22;6523;49.758;6.120;2023-04-24T07:35:56;7.50;99.90
12911;DHT22;6523;49.758;6.120;2023-04-24T07:38:22;7.60;99.90
12911;DHT22;6523;49.758;6.120;2023-04-24T07:40:48;7.60;99.90
12911;DHT22;6523;49.758;6.120;2023-04-24T07:43:14;7.50;99.90
12911;DHT22;6523;49.758;6.120;2023-04-24T07:45:40;7.60;99.90
12911;DHT22;6523;49.758;6.120;2023-04-24T07:48:06;7.60;99.90
12911;DHT22;6523;49.758;6.120;2023-04-24T07:50:31;7.60;99.90
12911;DHT22;6523;49.758;6.120;2023-04-24T07:52:57;7.70;99.90
12911;DHT22;6523;49.758;6.120;2023-04-24T07:55:23;7.90;99.90
12911;DHT22;6523;49.758;6.120;2023-04-24T07:57:48;7.80;99.90
12911;DHT22;6523;49.758;6.120;2023-04-24T08:00:15;7.80;99.90
12911;DHT22;6523;49.758;6.120;2023-04-24T08:02:40;7.90;99.90
12911;DHT22;6523;49.758;6.120;2023-04-24T08:05:06;8.00;99.90
12911;DHT22;6523;49.758;6.120;2023-04-24T08:07:32;7.90;99.90
12911;DHT22;6523;49.758;6.120;2023-04-24T08:09:57;8.00;99.90
12911;DHT22;6523;49.758;6.120;2023-04-24T08:12:24;8.00;99.90
12911;DHT22;6523;49.758;6.120;2023-04-24T08:14:50;8.10;99.90
12911;DHT22;6523;49.758;6.120;2023-04-24T08:17:16;8.00;99.90
12911;DHT22;6523;49.758;6.120;2023-04-24T08:19:42;8.00;99.90
12911;DHT22;6523;49.758;6.120;2023-04-24T08:22:12;8.00;99.90
12911;DHT22;6523;49.758;6.120;2023-04-24T08:24:38;8.00;99.90
12911;DHT22;6523;49.758;6.120;2023-04-24T08:27:04;7.90;99.90
12911;DHT22;6523;49.758;6.120;2023-04-24T08:29:29;7.90;99.90
12911;DHT22;6523;49.758;6.120;2023-04-24T08:31:55;7.90;99.90
12911;DHT22;6523;49.758;6.120;2023-04-24T08:34:21;8.00;99.90
12911;DHT22;6523;49.758;6.120;2023-04-24T08:36:47;8.20;99.90
12911;DHT22;6523;49.758;6.120;2023-04-24T08:39:13;8.50;99.90
12911;DHT22;6523;49.758;6.120;2023-04-24T08:41:40;8.60;99.90
12911;DHT22;6523;49.758;6.120;2023-04-24T08:44:08;8.70;99.90
12911;DHT22;6523;49.758;6.120;2023-04-24T08:46:34;8.60;99.90
12911;DHT22;6523;49.758;6.120;2023-04-24T08:49:01;8.70;99.90
12911;DHT22;6523;49.758;6.120;2023-04-24T08:51:27;8.90;99.90
12911;DHT22;6523;49.758;6.120;2023-04-24T08:53:55;8.90;99.90
12911;DHT22;6523;49.758;6.120;2023-04-24T08:56:23;8.80;99.90
12911;DHT22;6523;49.758;6.120;2023-04-24T08:58:50;8.80;99.90
12911;DHT22;6523;49.758;6.120;2023-04-24T09:01:18;8.90;99.90
12911;DHT22;6523;49.758;6.120;2023-04-24T09:03:46;9.10;99.90
12911;DHT22;6523;49.758;6.120;2023-04-24T09:06:11;9.20;99.90
12911;DHT22;6523;49.758;6.120;2023-04-24T09:08:39;9.20;99.90
12911;DHT22;6523;49.758;6.120;2023-04-24T09:11:06;9.40;99.90
12911;DHT22;6523;49.758;6.120;2023-04-24T09:13:32;9.40;99.90
12911;DHT22;6523;49.758;6.120;2023-04-24T09:15:58;9.40;99.90
12911;DHT22;6523;49.758;6.120;2023-04-24T09:18:26;9.50;99.90
12911;DHT22;6523;49.758;6.120;2023-04-24T09:21:03;9.70;99.90
12911;DHT22;6523;49.758;6.120;2023-04-24T09:23:30;9.90;99.90
12911;DHT22;6523;49.758;6.120;2023-04-24T09:25:57;10.00;99.90
12911;DHT22;6523;49.758;6.120;2023-04-24T09:28:31;9.90;99.90
12911;DHT22;6523;49.758;6.120;2023-04-24T09:31:14;9.90;99.90
12911;DHT22;6523;49.758;6.120;2023-04-24T09:33:54;9.90;99.90
12911;DHT22;6523;49.758;6.120;2023-04-24T09:36:31;9.70;99.90
12911;DHT22;6523;49.758;6.120;2023-04-24T09:39:03;9.60;99.90
12911;DHT22;6523;49.758;6.120;2023-04-24T09:41:31;9.60;99.90
12911;DHT22;6523;49.758;6.120;2023-04-24T09:43:57;9.60;99.90
12911;DHT22;6523;49.758;6.120;2023-04-24T09:46:30;9.90;99.90
12911;DHT22;6523;49.758;6.120;2023-04-24T09:49:08;10.50;99.90
12911;DHT22;6523;49.758;6.120;2023-04-24T09:51:35;10.60;99.90
12911;DHT22;6523;49.758;6.120;2023-04-24T09:54:02;10.50;99.90
12911;DHT22;6523;49.758;6.120;2023-04-24T09:56:32;10.30;99.90
12911;DHT22;6523;49.758;6.120;2023-04-24T09:59:18;10.20;99.90
12911;DHT22;6523;49.758;6.120;2023-04-24T10:01:44;10.70;99.90
12911;DHT22;6523;49.758;6.120;2023-04-24T10:04:27;11.10;99.90
12911;DHT22;6523;49.758;6.120;2023-04-24T10:06:55;10.40;99.90
12911;DHT22;6523;49.758;6.120;2023-04-24T10:09:23;10.40;99.90
12911;DHT22;6523;49.758;6.120;2023-04-24T10:11:51;10.60;99.90
12911;DHT22;6523;49.758;6.120;2023-04-24T10:14:18;10.50;99.90
12911;DHT22;6523;49.758;6.120;2023-04-24T10:16:46;10.70;99.90
12911;DHT22;6523;49.758;6.120;2023-04-24T10:19:16;11.40;99.90
12911;DHT22;6523;49.758;6.120;2023-04-24T10:21:44;10.90;99.90
12911;DHT22;6523;49.758;6.120;2023-04-24T10:24:16;10.50;99.90
12911;DHT22;6523;49.758;6.120;2023-04-24T10:26:43;10.40;99.90
12911;DHT22;6523;49.758;6.120;2023-04-24T10:29:11;10.30;99.90
12911;DHT22;6523;49.758;6.120;2023-04-24T10:31:38;10.40;99.90
12911;DHT22;6523;49.758;6.120;2023-04-24T10:34:05;10.50;99.90
12911;DHT22;6523;49.758;6.120;2023-04-24T10:36:33;10.30;99.90
12911;DHT22;6523;49.758;6.120;2023-04-24T10:39:01;10.20;99.90
12911;DHT22;6523;49.758;6.120;2023-04-24T10:41:27;10.20;99.90
12911;DHT22;6523;49.758;6.120;2023-04-24T10:44:12;10.00;99.90
12911;DHT22;6523;49.758;6.120;2023-04-24T10:46:39;10.00;99.90
12911;DHT22;6523;49.758;6.120;2023-04-24T10:49:07;10.10;99.90
12911;DHT22;6523;49.758;6.120;2023-04-24T10:51:51;10.30;99.90
12911;DHT22;6523;49.758;6.120;2023-04-24T10:54:26;10.30;99.90
12911;DHT22;6523;49.758;6.120;2023-04-24T10:56:53;10.20;99.90
12911;DHT22;6523;49.758;6.120;2023-04-24T10:59:26;10.30;99.90
12911;DHT22;6523;49.758;6.120;2023-04-24T11:01:54;10.40;99.90
12911;DHT22;6523;49.758;6.120;2023-04-24T11:04:33;10.40;99.90
12911;DHT22;6523;49.758;6.120;2023-04-24T11:07:00;10.60;99.90
12911;DHT22;6523;49.758;6.120;2023-04-24T11:09:27;10.90;99.90
12911;DHT22;6523;49.758;6.120;2023-04-24T11:12:04;10.80;99.90
12911;DHT22;6523;49.758;6.120;2023-04-24T11:17:37;10.40;99.90
12911;DHT22;6523;49.758;6.120;2023-04-24T11:20:15;10.30;99.90
12911;DHT22;6523;49.758;6.120;2023-04-24T11:22:41;10.20;99.90
12911;DHT22;6523;49.758;6.120;2023-04-24T11:25:08;10.20;99.90
12911;DHT22;6523;49.758;6.120;2023-04-24T11:27:42;10.20;99.90
12911;DHT22;6523;49.758;6.120;2023-04-24T11:30:09;10.10;99.90
12911;DHT22;6523;49.758;6.120;2023-04-24T11:32:40;10.00;99.90
12911;DHT22;6523;49.758;6.120;2023-04-24T11:37:41;10.00;99.90
12911;DHT22;6523;49.758;6.120;2023-04-24T11:40:09;10.10;99.90
12911;DHT22;6523;49.758;6.120;2023-04-24T11:42:54;10.40;99.90
12911;DHT22;6523;49.758;6.120;2023-04-24T11:45:27;10.60;99.90
12911;DHT22;6523;49.758;6.120;2023-04-24T11:47:53;10.70;99.90
12911;DHT22;6523;49.758;6.120;2023-04-24T11:50:22;10.90;99.90
12911;DHT22;6523;49.758;6.120;2023-04-24T11:52:49;11.00;99.90
12911;DHT22;6523;49.758;6.120;2023-04-24T11:57:49;11.20;99.90
12911;DHT22;6523;49.758;6.120;2023-04-24T12:00:16;11.20;99.90
12911;DHT22;6523;49.758;6.120;2023-04-24T12:02:43;10.90;99.90
12911;DHT22;6523;49.758;6.120;2023-04-24T12:05:09;11.20;99.90
12911;DHT22;6523;49.758;6.120;2023-04-24T12:07:44;11.20;99.90
12911;DHT22;6523;49.758;6.120;2023-04-24T12:10:09;11.40;99.90
12911;DHT22;6523;49.758;6.120;2023-04-24T12:12:35;11.20;99.90
12911;DHT22;6523;49.758;6.120;2023-04-24T12:15:06;11.30;99.90
12911;DHT22;6523;49.758;6.120;2023-04-24T12:17:33;11.90;99.90
12911;DHT22;6523;49.758;6.120;2023-04-24T12:22:25;13.10;99.90
12911;DHT22;6523;49.758;6.120;2023-04-24T12:27:23;12.20;99.90
12911;DHT22;6523;49.758;6.120;2023-04-24T12:29:53;12.40;99.90
12911;DHT22;6523;49.758;6.120;2023-04-24T12:32:19;12.80;99.90
12911;DHT22;6523;49.758;6.120;2023-04-24T12:34:44;13.70;99.90
12911;DHT22;6523;49.758;6.120;2023-04-24T12:37:11;12.60;99.90
12911;DHT22;6523;49.758;6.120;2023-04-24T12:39:36;12.40;99.90
12911;DHT22;6523;49.758;6.120;2023-04-24T12:42:02;12.70;99.90
12911;DHT22;6523;49.758;6.120;2023-04-24T12:44:34;13.40;99.90
12911;DHT22;6523;49.758;6.120;2023-04-24T12:47:00;14.40;99.90
12911;DHT22;6523;49.758;6.120;2023-04-24T12:49:27;13.60;99.90
12911;DHT22;6523;49.758;6.120;2023-04-24T12:51:53;12.90;99.90
12911;DHT22;6523;49.758;6.120;2023-04-24T12:54:19;13.10;99.90
12911;DHT22;6523;49.758;6.120;2023-04-24T12:56:44;13.40;99.90
12911;DHT22;6523;49.758;6.120;2023-04-24T12:59:10;14.00;99.90
12911;DHT22;6523;49.758;6.120;2023-04-24T13:01:36;13.50;99.90
12911;DHT22;6523;49.758;6.120;2023-04-24T13:04:01;13.60;99.90
12911;DHT22;6523;49.758;6.120;2023-04-24T13:06:27;13.60;99.90
12911;DHT22;6523;49.758;6.120;2023-04-24T13:08:52;13.70;99.90
12911;DHT22;6523;49.758;6.120;2023-04-24T13:11:20;14.00;99.90
12911;DHT22;6523;49.758;6.120;2023-04-24T13:13:47;14.00;99.90
12911;DHT22;6523;49.758;6.120;2023-04-24T13:16:12;14.70;99.90
12911;DHT22;6523;49.758;6.120;2023-04-24T13:18:38;15.30;99.90
12911;DHT22;6523;49.758;6.120;2023-04-24T13:21:03;15.30;99.90
12911;DHT22;6523;49.758;6.120;2023-04-24T13:23:29;15.10;99.90
12911;DHT22;6523;49.758;6.120;2023-04-24T13:25:54;15.00;99.90
12911;DHT22;6523;49.758;6.120;2023-04-24T13:28:23;14.40;99.90
12911;DHT22;6523;49.758;6.120;2023-04-24T13:30:48;13.70;99.90
12911;DHT22;6523;49.758;6.120;2023-04-24T13:33:14;13.60;99.90
12911;DHT22;6523;49.758;6.120;2023-04-24T13:35:41;13.70;99.90
12911;DHT22;6523;49.758;6.120;2023-04-24T13:38:06;13.20;99.90
12911;DHT22;6523;49.758;6.120;2023-04-24T13:40:32;13.00;99.90
12911;DHT22;6523;49.758;6.120;2023-04-24T13:42:58;12.70;99.90
12911;DHT22;6523;49.758;6.120;2023-04-24T13:45:23;12.50;99.90
12911;DHT22;6523;49.758;6.120;2023-04-24T13:47:49;12.30;99.90
12911;DHT22;6523;49.758;6.120;2023-04-24T13:50:15;12.40;99.90
12911;DHT22;6523;49.758;6.120;2023-04-24T13:52:41;12.40;99.90
12911;DHT22;6523;49.758;6.120;2023-04-24T13:55:07;12.20;99.90
12911;DHT22;6523;49.758;6.120;2023-04-24T13:57:32;11.90;99.90
12911;DHT22;6523;49.758;6.120;2023-04-24T13:59:58;11.80;99.90
12911;DHT22;6523;49.758;6.120;2023-04-24T14:02:29;11.60;99.90
12911;DHT22;6523;49.758;6.120;2023-04-24T14:04:54;11.10;99.90
12911;DHT22;6523;49.758;6.120;2023-04-24T14:07:20;10.90;99.90
12911;DHT22;6523;49.758;6.120;2023-04-24T14:09:46;10.70;99.90
12911;DHT22;6523;49.758;6.120;2023-04-24T14:12:11;10.60;99.90
12911;DHT22;6523;49.758;6.120;2023-04-24T14:14:38;10.60;99.90
12911;DHT22;6523;49.758;6.120;2023-04-24T14:17:03;10.60;99.90
12911;DHT22;6523;49.758;6.120;2023-04-24T14:19:29;10.70;99.90
12911;DHT22;6523;49.758;6.120;2023-04-24T14:21:54;10.90;99.90
12911;DHT22;6523;49.758;6.120;2023-04-24T14:24:22;11.10;99.90
12911;DHT22;6523;49.758;6.120;2023-04-24T14:26:47;11.30;99.90
12911;DHT22;6523;49.758;6.120;2023-04-24T14:29:13;12.20;99.90
12911;DHT22;6523;49.758;6.120;2023-04-24T14:31:38;12.10;99.90
12911;DHT22;6523;49.758;6.120;2023-04-24T14:34:04;11.80;99.90
12911;DHT22;6523;49.758;6.120;2023-04-24T14:36:30;12.00;99.90
12911;DHT22;6523;49.758;6.120;2023-04-24T14:38:56;12.40;99.90
12911;DHT22;6523;49.758;6.120;2023-04-24T14:41:22;12.20;99.90
12911;DHT22;6523;49.758;6.120;2023-04-24T14:43:47;11.90;99.90
12911;DHT22;6523;49.758;6.120;2023-04-24T14:46:13;11.80;99.90
12911;DHT22;6523;49.758;6.120;2023-04-24T14:48:39;11.60;99.90
12911;DHT22;6523;49.758;6.120;2023-04-24T14:51:04;11.10;99.90
12911;DHT22;6523;49.758;6.120;2023-04-24T14:53:30;10.80;99.90
12911;DHT22;6523;49.758;6.120;2023-04-24T14:55:56;10.80;99.90
12911;DHT22;6523;49.758;6.120;2023-04-24T14:58:21;10.80;99.90
12911;DHT22;6523;49.758;6.120;2023-04-24T15:00:47;10.50;99.90
12911;DHT22;6523;49.758;6.120;2023-04-24T15:03:15;10.40;99.90
12911;DHT22;6523;49.758;6.120;2023-04-24T15:05:41;10.20;99.90
12911;DHT22;6523;49.758;6.120;2023-04-24T15:08:06;10.30;99.90
12911;DHT22;6523;49.758;6.120;2023-04-24T15:10:32;10.40;99.90
12911;DHT22;6523;49.758;6.120;2023-04-24T15:12:58;10.30;99.90
12911;DHT22;6523;49.758;6.120;2023-04-24T15:15:24;10.20;99.90
12911;DHT22;6523;49.758;6.120;2023-04-24T15:17:49;10.00;99.90
12911;DHT22;6523;49.758;6.120;2023-04-24T15:20:15;10.30;99.90
12911;DHT22;6523;49.758;6.120;2023-04-24T15:22:40;10.70;99.90
12911;DHT22;6523;49.758;6.120;2023-04-24T15:25:06;11.90;99.90
12911;DHT22;6523;49.758;6.120;2023-04-24T15:27:43;11.60;99.90
12911;DHT22;6523;49.758;6.120;2023-04-24T15:30:09;11.90;99.90
12911;DHT22;6523;49.758;6.120;2023-04-24T15:32:35;11.10;99.90
12911;DHT22;6523;49.758;6.120;2023-04-24T15:35:01;11.00;99.90
12911;DHT22;6523;49.758;6.120;2023-04-24T15:37:27;10.90;99.90
12911;DHT22;6523;49.758;6.120;2023-04-24T15:39:53;10.80;99.90
12911;DHT22;6523;49.758;6.120;2023-04-24T15:42:18;10.80;99.90
12911;DHT22;6523;49.758;6.120;2023-04-24T15:44:44;10.80;99.90
12911;DHT22;6523;49.758;6.120;2023-04-24T15:47:09;10.70;99.90
12911;DHT22;6523;49.758;6.120;2023-04-24T15:49:35;10.80;99.90
12911;DHT22;6523;49.758;6.120;2023-04-24T15:52:01;10.80;99.90
12911;DHT22;6523;49.758;6.120;2023-04-24T15:54:27;10.70;99.90
12911;DHT22;6523;49.758;6.120;2023-04-24T15:56:52;10.60;99.90
12911;DHT22;6523;49.758;6.120;2023-04-24T15:59:18;10.60;99.90
12911;DHT22;6523;49.758;6.120;2023-04-24T16:01:44;10.80;99.90
12911;DHT22;6523;49.758;6.120;2023-04-24T16:04:09;11.00;99.90